Time;durP1;ratioP1;P1;durP2;ratioP2;P2;SDS_P1;SDS_P2;PMS_P1;PMS_P2;Temp;Humidity;BMP_temperature;BMP_pressure;BME280_temperature;BME280_humidity;BME280_pressure;Samples;Min_cycle;Max_cycle;Signal;HPM_P1;HPM_P2
2022/10/27 00:00:31;;;;;;;8.07;5.40;;;;;;;;;;5073578;28;20036;-87
2022/10/27 00:02:56;;;;;;;9.55;5.53;;;;;;;;;;5070742;28;20382;-86
2022/10/27 00:05:22;;;;;;;9.05;5.72;;;;;;;;;;5073655;28;20047;-86
2022/10/27 00:07:47;;;;;;;9.18;5.63;;;;;;;;;;5087112;28;20108;-87
2022/10/27 00:10:13;;;;;;;8.70;5.43;;;;;;;;;;5070689;28;20048;-85
2022/10/27 00:12:39;;;;;;;9.57;5.57;;;;;;;;;;5060177;28;20068;-86
2022/10/27 00:15:05;;;;;;;10.32;5.55;;;;;;;;;;5068892;28;20036;-86
2022/10/27 00:17:30;;;;;;;7.75;5.55;;;;;;;;;;5038947;28;20400;-86
2022/10/27 00:19:55;;;;;;;8.75;5.55;;;;;;;;;;5071492;28;20036;-86
2022/10/27 00:22:23;;;;;;;9.45;6.32;;;;;;;;;;5069654;28;20040;-86
2022/10/27 00:24:49;;;;;;;9.60;5.68;;;;;;;;;;5052636;28;20089;-86
2022/10/27 00:27:14;;;;;;;10.68;6.70;;;;;;;;;;5068940;28;20037;-86
2022/10/27 00:29:40;;;;;;;9.05;5.88;;;;;;;;;;5047061;28;20516;-85
2022/10/27 00:32:05;;;;;;;11.95;6.25;;;;;;;;;;5051226;28;20507;-85
2022/10/27 00:34:31;;;;;;;8.68;6.45;;;;;;;;;;5040341;28;20029;-86
2022/10/27 00:36:56;;;;;;;8.45;5.53;;;;;;;;;;5039557;28;20082;-86
2022/10/27 00:39:22;;;;;;;9.25;6.32;;;;;;;;;;5073761;28;20245;-86
2022/10/27 00:41:47;;;;;;;10.55;5.88;;;;;;;;;;5041290;28;20474;-86
2022/10/27 00:44:36;;;;;;;9.07;6.15;;;;;;;;;;5053152;28;20514;-86
2022/10/27 00:47:08;;;;;;;8.80;5.53;;;;;;;;;;5079597;28;20029;-86
2022/10/27 00:49:54;;;;;;;9.85;5.50;;;;;;;;;;5087309;28;20051;-85
2022/10/27 00:52:24;;;;;;;8.43;5.55;;;;;;;;;;5071372;28;20040;-86
2022/10/27 00:54:50;;;;;;;8.07;5.20;;;;;;;;;;5047802;28;20067;-86
2022/10/27 00:57:15;;;;;;;8.25;5.22;;;;;;;;;;5072586;28;20056;-87
2022/10/27 00:59:41;;;;;;;9.52;5.47;;;;;;;;;;5046866;28;20033;-86
2022/10/27 01:02:09;;;;;;;7.70;5.00;;;;;;;;;;5045569;28;20070;-86
2022/10/27 01:04:41;;;;;;;10.75;5.22;;;;;;;;;;5036952;28;20036;-86
2022/10/27 01:07:06;;;;;;;8.93;5.03;;;;;;;;;;5068289;28;20037;-86
2022/10/27 01:09:32;;;;;;;7.10;4.57;;;;;;;;;;5054215;28;20035;-87
2022/10/27 01:11:57;;;;;;;8.88;4.93;;;;;;;;;;5021795;28;20055;-86
2022/10/27 01:14:23;;;;;;;9.15;4.93;;;;;;;;;;5023561;28;20070;-87
2022/10/27 01:17:16;;;;;;;7.65;4.55;;;;;;;;;;5021731;28;20071;-86
2022/10/27 01:19:41;;;;;;;7.78;4.75;;;;;;;;;;5023842;28;20029;-87
2022/10/27 01:22:34;;;;;;;7.63;4.25;;;;;;;;;;5039576;28;20056;-86
2022/10/27 01:25:39;;;;;;;7.18;4.38;;;;;;;;;;5070691;28;20040;-86
2022/10/27 01:28:32;;;;;;;7.68;4.47;;;;;;;;;;5021430;28;20615;-86
2022/10/27 01:31:17;;;;;;;8.05;4.18;;;;;;;;;;5043205;28;20040;-86
2022/10/27 01:33:46;;;;;;;7.65;4.55;;;;;;;;;;5055807;28;20051;-86
2022/10/27 01:36:27;;;;;;;7.50;4.45;;;;;;;;;;5051649;28;20036;-86
2022/10/27 01:39:05;;;;;;;8.23;4.45;;;;;;;;;;5035810;28;20041;-86
2022/10/27 01:41:38;;;;;;;8.75;4.47;;;;;;;;;;5021283;28;20536;-86
2022/10/27 01:44:08;;;;;;;10.05;4.50;;;;;;;;;;5022402;28;20119;-87
2022/10/27 01:46:33;;;;;;;10.30;5.38;;;;;;;;;;5021604;28;20111;-84
2022/10/27 01:48:58;;;;;;;8.40;4.80;;;;;;;;;;5029113;28;20127;-87
2022/10/27 01:51:24;;;;;;;7.50;4.50;;;;;;;;;;5050774;28;20033;-86
2022/10/27 01:53:51;;;;;;;8.73;4.53;;;;;;;;;;5021911;28;20115;-86
2022/10/27 01:56:47;;;;;;;7.03;4.47;;;;;;;;;;5028008;28;20033;-86
2022/10/27 01:59:30;;;;;;;8.75;4.65;;;;;;;;;;5053015;28;20083;-85
2022/10/27 02:02:08;;;;;;;9.10;4.80;;;;;;;;;;5051638;28;20032;-86
2022/10/27 02:04:49;;;;;;;7.05;4.47;;;;;;;;;;5055092;28;20095;-86
2022/10/27 02:07:24;;;;;;;7.13;4.30;;;;;;;;;;5051166;28;20064;-85
2022/10/27 02:09:54;;;;;;;8.35;4.68;;;;;;;;;;5036222;28;20082;-85
2022/10/27 02:12:36;;;;;;;7.80;4.53;;;;;;;;;;5034448;28;20482;-86
2022/10/27 02:15:06;;;;;;;9.35;4.30;;;;;;;;;;5055541;28;20032;-86
2022/10/27 02:17:37;;;;;;;7.55;4.10;;;;;;;;;;5027955;28;20033;-85
2022/10/27 02:20:05;;;;;;;6.35;4.05;;;;;;;;;;5027666;28;20033;-85
2022/10/27 02:22:31;;;;;;;7.82;4.32;;;;;;;;;;5020000;28;20152;-86
2022/10/27 02:24:56;;;;;;;8.00;4.90;;;;;;;;;;5022803;28;20029;-85
2022/10/27 02:27:37;;;;;;;6.47;4.00;;;;;;;;;;5045403;28;20120;-86
2022/10/27 02:30:03;;;;;;;8.07;4.15;;;;;;;;;;5022419;28;20033;-86
2022/10/27 02:32:29;;;;;;;6.13;3.95;;;;;;;;;;5036953;28;20033;-85
2022/10/27 02:34:57;;;;;;;6.88;4.15;;;;;;;;;;5032800;28;20032;-87
2022/10/27 02:37:36;;;;;;;6.38;3.88;;;;;;;;;;5019408;28;20530;-86
2022/10/27 02:40:02;;;;;;;6.80;4.53;;;;;;;;;;5030342;28;20108;-86
2022/10/27 02:42:27;;;;;;;10.50;4.32;;;;;;;;;;5053887;28;20564;-83
2022/10/27 02:44:53;;;;;;;6.40;4.38;;;;;;;;;;5055908;28;20040;-83
2022/10/27 02:47:18;;;;;;;7.97;4.38;;;;;;;;;;5018527;28;20064;-83
2022/10/27 02:49:44;;;;;;;6.63;4.18;;;;;;;;;;5018057;28;20040;-83
2022/10/27 02:52:09;;;;;;;7.25;4.00;;;;;;;;;;5026049;28;20029;-82
2022/10/27 02:54:35;;;;;;;7.30;4.40;;;;;;;;;;5066707;28;20032;-82
2022/10/27 02:57:00;;;;;;;6.95;4.00;;;;;;;;;;5021833;28;20052;-82
2022/10/27 02:59:26;;;;;;;7.75;4.00;;;;;;;;;;5030816;28;20036;-83
2022/10/27 03:01:51;;;;;;;7.88;4.65;;;;;;;;;;5038881;28;20043;-83
2022/10/27 03:04:16;;;;;;;6.82;4.43;;;;;;;;;;5024668;28;20044;-83
2022/10/27 03:06:42;;;;;;;7.63;4.55;;;;;;;;;;5056315;28;20049;-82
2022/10/27 03:09:07;;;;;;;7.97;4.80;;;;;;;;;;5039555;28;20450;-82
2022/10/27 03:11:33;;;;;;;8.07;4.60;;;;;;;;;;5023986;28;20033;-82
2022/10/27 03:13:58;;;;;;;7.03;4.53;;;;;;;;;;5036740;28;20091;-83
2022/10/27 03:16:23;;;;;;;7.57;4.82;;;;;;;;;;5055865;28;20662;-83
2022/10/27 03:18:49;;;;;;;6.07;4.40;;;;;;;;;;5057009;28;20507;-83
2022/10/27 03:21:14;;;;;;;8.10;4.57;;;;;;;;;;5040969;28;20029;-83
2022/10/27 03:23:40;;;;;;;7.47;4.90;;;;;;;;;;5035172;28;20064;-83
2022/10/27 03:26:05;;;;;;;9.48;5.15;;;;;;;;;;5028758;28;20448;-82
2022/10/27 03:28:34;;;;;;;7.80;4.60;;;;;;;;;;5024557;28;20524;-83
2022/10/27 03:31:00;;;;;;;7.13;4.70;;;;;;;;;;5024880;28;20063;-82
2022/10/27 03:33:25;;;;;;;7.03;4.80;;;;;;;;;;5023392;28;20029;-82
2022/10/27 03:35:50;;;;;;;8.85;4.57;;;;;;;;;;5022576;28;20400;-82
2022/10/27 03:38:16;;;;;;;6.97;4.70;;;;;;;;;;5025253;28;20692;-82
2022/10/27 03:40:41;;;;;;;7.68;4.68;;;;;;;;;;5038993;28;20476;-82
2022/10/27 03:43:06;;;;;;;7.35;5.03;;;;;;;;;;5023192;28;20033;-81
2022/10/27 03:45:33;;;;;;;9.38;5.07;;;;;;;;;;5057249;28;20455;-83
2022/10/27 03:48:10;;;;;;;8.00;4.68;;;;;;;;;;5031327;28;20422;-83
2022/10/27 03:50:35;;;;;;;7.13;4.47;;;;;;;;;;5029675;28;20037;-82
2022/10/27 03:53:02;;;;;;;8.48;5.50;;;;;;;;;;5021217;28;20605;-82
2022/10/27 03:55:28;;;;;;;7.68;4.80;;;;;;;;;;5054030;28;20577;-82
2022/10/27 03:57:53;;;;;;;7.75;4.93;;;;;;;;;;5064696;28;20037;-83
2022/10/27 04:00:18;;;;;;;8.13;5.53;;;;;;;;;;5033825;28;20116;-83
2022/10/27 04:02:44;;;;;;;6.75;4.60;;;;;;;;;;5051730;28;20474;-82
2022/10/27 04:05:09;;;;;;;7.90;4.95;;;;;;;;;;5028754;28;20373;-82
2022/10/27 04:07:35;;;;;;;7.85;4.68;;;;;;;;;;5053574;28;20100;-82
2022/10/27 04:10:00;;;;;;;9.70;5.65;;;;;;;;;;5040429;28;20061;-82
2022/10/27 04:12:25;;;;;;;7.53;5.20;;;;;;;;;;5030592;28;20037;-82
2022/10/27 04:14:51;;;;;;;8.30;5.43;;;;;;;;;;5059051;28;20492;-83
2022/10/27 04:17:17;;;;;;;8.02;5.07;;;;;;;;;;5019377;28;20036;-83
2022/10/27 04:19:42;;;;;;;10.07;5.38;;;;;;;;;;5052982;28;20179;-82
2022/10/27 04:22:08;;;;;;;7.95;4.68;;;;;;;;;;5057090;28;20037;-83
2022/10/27 04:24:33;;;;;;;6.85;4.80;;;;;;;;;;5026358;28;20303;-83
2022/10/27 04:26:58;;;;;;;8.18;4.70;;;;;;;;;;5029293;28;20040;-82
2022/10/27 04:29:24;;;;;;;7.68;4.70;;;;;;;;;;5029814;28;20040;-82
2022/10/27 04:31:49;;;;;;;7.78;5.07;;;;;;;;;;5057532;28;20037;-83
2022/10/27 04:34:14;;;;;;;6.38;4.40;;;;;;;;;;5021484;28;20594;-82
2022/10/27 04:36:42;;;;;;;7.30;4.68;;;;;;;;;;5017400;28;20040;-82
2022/10/27 04:39:12;;;;;;;7.45;4.75;;;;;;;;;;5055123;28;20507;-83
2022/10/27 04:41:38;;;;;;;8.48;4.50;;;;;;;;;;5037997;28;20112;-83
2022/10/27 04:44:03;;;;;;;7.18;4.85;;;;;;;;;;5022621;28;20578;-82
2022/10/27 04:46:29;;;;;;;8.85;4.93;;;;;;;;;;5022906;28;20029;-83
2022/10/27 04:48:54;;;;;;;7.43;4.70;;;;;;;;;;5024250;28;20447;-88
2022/10/27 04:51:19;;;;;;;9.38;5.43;;;;;;;;;;5022868;28;20044;-87
2022/10/27 04:53:45;;;;;;;8.40;5.60;;;;;;;;;;5055546;28;20040;-88
2022/10/27 04:56:10;;;;;;;10.07;6.63;;;;;;;;;;5052904;28;20041;-87
2022/10/27 04:58:35;;;;;;;8.93;6.10;;;;;;;;;;5041121;28;20113;-88
2022/10/27 05:01:08;;;;;;;9.35;5.65;;;;;;;;;;5071659;28;20091;-88
2022/10/27 05:03:33;;;;;;;8.55;4.85;;;;;;;;;;5057500;28;20644;-89
2022/10/27 05:05:59;;;;;;;9.00;5.65;;;;;;;;;;5063173;28;20057;-90
2022/10/27 05:08:24;;;;;;;8.65;4.97;;;;;;;;;;5021168;28;20029;-89
2022/10/27 05:10:50;;;;;;;7.70;4.90;;;;;;;;;;5022080;28;20029;-89
2022/10/27 05:13:15;;;;;;;10.13;5.53;;;;;;;;;;5023647;28;20033;-90
2022/10/27 05:15:40;;;;;;;7.57;4.95;;;;;;;;;;5035993;28;20041;-89
2022/10/27 05:18:06;;;;;;;9.55;5.53;;;;;;;;;;5024756;28;20035;-88
2022/10/27 05:20:31;;;;;;;8.50;5.47;;;;;;;;;;5021854;28;20032;-89
2022/10/27 05:22:57;;;;;;;8.55;4.97;;;;;;;;;;5038138;28;20052;-89
2022/10/27 05:25:22;;;;;;;9.02;5.38;;;;;;;;;;5055259;28;20047;-88
2022/10/27 05:27:47;;;;;;;8.00;5.05;;;;;;;;;;5030219;28;20488;-89
2022/10/27 05:30:13;;;;;;;9.43;5.45;;;;;;;;;;5056623;28;20036;-86
2022/10/27 05:32:39;;;;;;;9.00;5.65;;;;;;;;;;5027667;28;20036;-85
2022/10/27 05:35:05;;;;;;;10.85;6.50;;;;;;;;;;5036550;28;20090;-89
2022/10/27 05:37:30;;;;;;;10.85;6.78;;;;;;;;;;5056762;28;20032;-89
2022/10/27 05:39:55;;;;;;;8.25;5.47;;;;;;;;;;5031454;28;20673;-88
2022/10/27 05:42:21;;;;;;;7.80;5.20;;;;;;;;;;5021606;28;20048;-87
2022/10/27 05:44:46;;;;;;;11.95;5.68;;;;;;;;;;5037677;28;20400;-88
2022/10/27 05:47:12;;;;;;;9.13;5.72;;;;;;;;;;5021851;28;20491;-87
2022/10/27 05:49:37;;;;;;;9.65;6.13;;;;;;;;;;5019140;28;20419;-90
2022/10/27 05:52:02;;;;;;;10.60;5.40;;;;;;;;;;5040949;28;20377;-88
2022/10/27 05:54:28;;;;;;;8.52;5.60;;;;;;;;;;5027813;28;20037;-89
2022/10/27 05:56:54;;;;;;;8.82;5.78;;;;;;;;;;5018044;28;20032;-89
2022/10/27 05:59:20;;;;;;;11.82;6.32;;;;;;;;;;5041507;28;20036;-88
2022/10/27 06:01:48;;;;;;;9.45;5.97;;;;;;;;;;5048906;28;20083;-93
2022/10/27 06:04:21;;;;;;;10.55;6.40;;;;;;;;;;5008182;28;20032;-91
2022/10/27 06:06:47;;;;;;;12.43;6.50;;;;;;;;;;4986306;28;20420;-91
2022/10/27 06:09:13;;;;;;;9.50;6.18;;;;;;;;;;5038880;28;20048;-93
2022/10/27 06:11:42;;;;;;;9.95;6.18;;;;;;;;;;5008952;28;20035;-93
2022/10/27 06:14:13;;;;;;;10.60;6.25;;;;;;;;;;5031620;28;20503;-93
2022/10/27 06:17:03;;;;;;;11.10;7.07;;;;;;;;;;5017914;28;20036;-93
2022/10/27 06:22:30;;;;;;;13.90;6.82;;;;;;;;;;4927568;28;20496;-91
2022/10/27 06:25:01;;;;;;;10.93;6.85;;;;;;;;;;4928219;28;20319;-93
2022/10/27 06:28:00;;;;;;;10.50;7.18;;;;;;;;;;5013662;28;20098;-92
2022/10/27 06:30:31;;;;;;;10.80;6.78;;;;;;;;;;5048826;28;20036;-92
2022/10/27 06:33:02;;;;;;;11.00;7.18;;;;;;;;;;5074898;28;20453;-93
2022/10/27 06:35:28;;;;;;;12.20;7.05;;;;;;;;;;5047776;28;21004;-82
2022/10/27 06:37:53;;;;;;;11.77;7.25;;;;;;;;;;5054893;28;20032;-83
2022/10/27 06:40:19;;;;;;;9.68;6.50;;;;;;;;;;5073523;28;20088;-82
2022/10/27 06:42:49;;;;;;;12.73;7.18;;;;;;;;;;5053706;28;20042;-84
2022/10/27 06:45:16;;;;;;;10.65;6.82;;;;;;;;;;5040222;28;20115;-83
2022/10/27 06:47:45;;;;;;;11.00;7.28;;;;;;;;;;5043466;28;20549;-83
2022/10/27 06:50:11;;;;;;;13.95;7.45;;;;;;;;;;5043241;28;20039;-82
2022/10/27 06:52:37;;;;;;;9.90;6.65;;;;;;;;;;5048205;28;20036;-82
2022/10/27 06:55:03;;;;;;;9.70;6.50;;;;;;;;;;5042219;28;20633;-81
2022/10/27 06:57:29;;;;;;;12.05;6.88;;;;;;;;;;5042162;28;20036;-81
2022/10/27 06:59:54;;;;;;;10.55;6.68;;;;;;;;;;5074936;28;20058;-81
2022/10/27 07:02:21;;;;;;;10.93;6.72;;;;;;;;;;5040345;28;20599;-83
2022/10/27 07:04:46;;;;;;;10.90;6.53;;;;;;;;;;5042458;28;20037;-81
2022/10/27 07:07:11;;;;;;;12.60;7.05;;;;;;;;;;5064624;28;20567;-82
2022/10/27 07:09:37;;;;;;;19.92;8.30;;;;;;;;;;5041904;28;20036;-81
2022/10/27 07:12:02;;;;;;;10.93;6.85;;;;;;;;;;5039628;28;20051;-82
2022/10/27 07:14:27;;;;;;;11.52;6.40;;;;;;;;;;5039535;28;20032;-82
2022/10/27 07:16:53;;;;;;;10.40;6.95;;;;;;;;;;5073888;28;20024;-83
2022/10/27 07:19:18;;;;;;;9.50;6.80;;;;;;;;;;5048344;28;20048;-82
2022/10/27 07:21:43;;;;;;;11.57;7.28;;;;;;;;;;5054621;28;20036;-82
2022/10/27 07:24:09;;;;;;;10.07;6.75;;;;;;;;;;5049221;28;20491;-82
2022/10/27 07:26:34;;;;;;;9.43;6.00;;;;;;;;;;5054997;28;20031;-82
2022/10/27 07:29:02;;;;;;;9.55;6.18;;;;;;;;;;5048696;28;20546;-81
2022/10/27 07:31:28;;;;;;;10.80;6.07;;;;;;;;;;5043920;28;20139;-82
2022/10/27 07:33:53;;;;;;;9.93;5.68;;;;;;;;;;5040661;28;20383;-82
2022/10/27 07:36:18;;;;;;;8.82;5.78;;;;;;;;;;5052047;28;20438;-82
2022/10/27 07:38:44;;;;;;;9.43;5.70;;;;;;;;;;5041317;28;20040;-82
2022/10/27 07:41:10;;;;;;;10.63;5.70;;;;;;;;;;5043508;28;20033;-81
2022/10/27 07:43:38;;;;;;;10.57;5.75;;;;;;;;;;5090159;28;20036;-83
2022/10/27 07:46:03;;;;;;;10.13;5.07;;;;;;;;;;5046210;28;20513;-82
2022/10/27 07:48:29;;;;;;;11.20;5.40;;;;;;;;;;5045260;28;20032;-82
2022/10/27 07:50:54;;;;;;;7.18;4.50;;;;;;;;;;5043546;28;20044;-83
2022/10/27 07:53:20;;;;;;;9.48;5.07;;;;;;;;;;5078447;28;20119;-83
2022/10/27 07:55:45;;;;;;;6.68;4.45;;;;;;;;;;5045341;28;20399;-82
2022/10/27 07:58:15;;;;;;;9.52;4.75;;;;;;;;;;5042751;28;20555;-83
2022/10/27 08:00:43;;;;;;;8.23;4.30;;;;;;;;;;5042393;28;20032;-83
2022/10/27 08:03:17;;;;;;;7.80;4.20;;;;;;;;;;5083716;28;20086;-83
2022/10/27 08:05:42;;;;;;;6.93;3.78;;;;;;;;;;5049723;28;20032;-83
2022/10/27 08:08:08;;;;;;;9.27;4.63;;;;;;;;;;5045051;28;20457;-84
2022/10/27 08:10:36;;;;;;;8.15;4.30;;;;;;;;;;5073846;28;20089;-83
2022/10/27 08:13:01;;;;;;;9.85;4.57;;;;;;;;;;5045553;28;20119;-82
2022/10/27 08:15:27;;;;;;;7.45;4.38;;;;;;;;;;5044261;28;20118;-83
2022/10/27 08:17:56;;;;;;;8.23;4.60;;;;;;;;;;5042206;28;20465;-84
2022/10/27 08:20:21;;;;;;;6.97;4.18;;;;;;;;;;5042448;28;20064;-83
2022/10/27 08:22:53;;;;;;;8.25;4.18;;;;;;;;;;5076222;28;20114;-83
2022/10/27 08:25:19;;;;;;;9.85;4.30;;;;;;;;;;5045016;28;20059;-84
2022/10/27 08:27:44;;;;;;;7.70;4.05;;;;;;;;;;5044196;28;20028;-82
2022/10/27 08:30:30;;;;;;;8.35;3.80;;;;;;;;;;5075126;28;20036;-82
2022/10/27 08:32:57;;;;;;;8.98;4.22;;;;;;;;;;5033409;28;20068;-83
2022/10/27 08:35:23;;;;;;;9.02;4.20;;;;;;;;;;5000565;28;20500;-83
2022/10/27 08:37:48;;;;;;;7.75;4.28;;;;;;;;;;5009942;28;20567;-83
2022/10/27 08:40:16;;;;;;;6.72;4.03;;;;;;;;;;5003870;28;20037;-83
2022/10/27 08:42:52;;;;;;;6.78;3.90;;;;;;;;;;5016545;28;20459;-82
2022/10/27 08:45:26;;;;;;;6.28;3.85;;;;;;;;;;5031974;28;20437;-84
2022/10/27 08:47:56;;;;;;;7.25;4.10;;;;;;;;;;5010304;28;20040;-83
2022/10/27 08:50:24;;;;;;;8.70;4.32;;;;;;;;;;5009750;28;20452;-83
2022/10/27 08:53:05;;;;;;;6.43;3.80;;;;;;;;;;5008169;28;20513;-83
2022/10/27 08:55:56;;;;;;;6.82;4.07;;;;;;;;;;4996364;28;20053;-82
2022/10/27 08:58:33;;;;;;;10.50;4.20;;;;;;;;;;4993739;28;20119;-82
2022/10/27 09:01:01;;;;;;;7.60;4.55;;;;;;;;;;5003616;28;20116;-82
2022/10/27 09:04:04;;;;;;;7.20;4.10;;;;;;;;;;5008263;28;20472;-83
2022/10/27 09:06:33;;;;;;;7.13;3.90;;;;;;;;;;5016544;28;20050;-82
2022/10/27 09:09:29;;;;;;;8.85;3.90;;;;;;;;;;5023777;28;20095;-82
2022/10/27 09:11:59;;;;;;;7.35;3.65;;;;;;;;;;5078590;28;20044;-83
2022/10/27 09:14:46;;;;;;;7.20;3.33;;;;;;;;;;5059728;28;20448;-83
2022/10/27 09:17:26;;;;;;;6.13;3.80;;;;;;;;;;5064365;28;20590;-83
2022/10/27 09:20:03;;;;;;;7.20;3.80;;;;;;;;;;5073942;28;20411;-83
2022/10/27 09:22:33;;;;;;;5.13;3.30;;;;;;;;;;5076627;28;20058;-84
2022/10/27 09:25:03;;;;;;;5.20;3.35;;;;;;;;;;5056203;28;20033;-83
2022/10/27 09:27:32;;;;;;;6.15;3.05;;;;;;;;;;5081011;28;20177;-83
2022/10/27 09:30:03;;;;;;;5.47;3.08;;;;;;;;;;5043440;28;20450;-82
2022/10/27 09:32:30;;;;;;;7.15;3.35;;;;;;;;;;5043535;28;20055;-83
2022/10/27 09:35:01;;;;;;;6.45;3.03;;;;;;;;;;5076210;28;20042;-83
2022/10/27 09:37:27;;;;;;;6.07;3.15;;;;;;;;;;5057421;28;20500;-82
2022/10/27 09:39:53;;;;;;;6.45;2.83;;;;;;;;;;5076979;28;20538;-83
2022/10/27 09:42:19;;;;;;;5.20;3.03;;;;;;;;;;5041416;28;20061;-83
2022/10/27 09:44:52;;;;;;;5.15;3.00;;;;;;;;;;5060202;28;20067;-83
2022/10/27 09:47:18;;;;;;;6.88;2.75;;;;;;;;;;5055664;28;20506;-84
2022/10/27 09:49:45;;;;;;;6.65;2.70;;;;;;;;;;5046320;28;20038;-83
2022/10/27 09:52:22;;;;;;;5.45;2.55;;;;;;;;;;5039736;28;20085;-83
2022/10/27 09:54:52;;;;;;;4.70;2.67;;;;;;;;;;5057643;28;20063;-82
2022/10/27 09:57:19;;;;;;;5.78;2.65;;;;;;;;;;5048599;28;20123;-83
2022/10/27 09:59:55;;;;;;;5.80;2.73;;;;;;;;;;5074842;28;20040;-82
2022/10/27 10:02:32;;;;;;;6.05;2.80;;;;;;;;;;5053857;28;20043;-83
2022/10/27 10:04:58;;;;;;;6.10;2.63;;;;;;;;;;5055779;28;20162;-83
2022/10/27 10:07:28;;;;;;;4.57;2.42;;;;;;;;;;5039827;28;20048;-82
2022/10/27 10:10:01;;;;;;;4.38;2.67;;;;;;;;;;5040743;28;20406;-92
2022/10/27 10:12:27;;;;;;;5.07;2.00;;;;;;;;;;5046609;28;20113;-91
2022/10/27 10:15:22;;;;;;;4.20;2.25;;;;;;;;;;5073382;28;20131;-93
2022/10/27 10:17:58;;;;;;;4.82;1.90;;;;;;;;;;5034600;28;20040;-92
2022/10/27 10:20:43;;;;;;;4.63;2.00;;;;;;;;;;5049077;28;20101;-94
2022/10/27 10:23:20;;;;;;;5.18;2.00;;;;;;;;;;5045729;28;20036;-93
2022/10/27 10:25:48;;;;;;;5.32;2.22;;;;;;;;;;5081005;28;20501;-92
2022/10/27 10:28:24;;;;;;;5.57;1.90;;;;;;;;;;5074913;28;20457;-92
2022/10/27 10:30:51;;;;;;;4.82;1.80;;;;;;;;;;5070427;28;20051;-92
2022/10/27 10:33:17;;;;;;;3.65;1.65;;;;;;;;;;5042464;28;20040;-92
2022/10/27 10:35:47;;;;;;;5.00;2.10;;;;;;;;;;5036670;28;20113;-92
2022/10/27 10:38:22;;;;;;;4.43;2.13;;;;;;;;;;5052498;28;20491;-91
2022/10/27 10:41:10;;;;;;;7.45;1.98;;;;;;;;;;5073096;28;20434;-92
2022/10/27 10:43:39;;;;;;;3.83;2.03;;;;;;;;;;5090792;28;20036;-91
2022/10/27 10:46:21;;;;;;;3.42;1.52;;;;;;;;;;5047050;28;20666;-93
2022/10/27 10:48:56;;;;;;;4.20;2.13;;;;;;;;;;5079346;28;20032;-93
2022/10/27 10:51:32;;;;;;;6.18;1.73;;;;;;;;;;5052029;28;20050;-93
2022/10/27 10:54:04;;;;;;;4.63;2.00;;;;;;;;;;5035532;28;20036;-93
2022/10/27 10:56:32;;;;;;;3.55;1.38;;;;;;;;;;5046648;28;20409;-92
2022/10/27 10:59:11;;;;;;;4.60;1.45;;;;;;;;;;5055585;28;20447;-92
2022/10/27 11:02:18;;;;;;;3.60;1.65;;;;;;;;;;5081864;28;20495;-93
2022/10/27 11:04:46;;;;;;;3.38;1.20;;;;;;;;;;5014256;28;20123;-92
2022/10/27 11:07:38;;;;;;;4.65;1.77;;;;;;;;;;5027927;28;20572;-93
2022/10/27 11:10:11;;;;;;;3.63;1.40;;;;;;;;;;5058930;28;20036;-92
2022/10/27 11:12:53;;;;;;;5.65;1.88;;;;;;;;;;5038717;28;20491;-92
2022/10/27 11:15:44;;;;;;;3.05;1.15;;;;;;;;;;5060342;28;20487;-92
2022/10/27 11:18:15;;;;;;;5.10;1.20;;;;;;;;;;5046368;28;20028;-92
2022/10/27 11:20:42;;;;;;;3.28;1.20;;;;;;;;;;5045757;28;20025;-93
2022/10/27 11:23:29;;;;;;;3.25;1.20;;;;;;;;;;5037278;28;20029;-91
2022/10/27 11:25:58;;;;;;;2.30;0.93;;;;;;;;;;5041808;28;20028;-90
2022/10/27 11:28:30;;;;;;;3.58;1.10;;;;;;;;;;5047596;28;20062;-90
2022/10/27 11:31:09;;;;;;;2.58;0.90;;;;;;;;;;5045635;28;20609;-91
2022/10/27 11:33:59;;;;;;;4.20;1.10;;;;;;;;;;5019488;28;20047;-90
2022/10/27 11:36:41;;;;;;;3.35;1.05;;;;;;;;;;5048304;28;20069;-90
2022/10/27 11:39:09;;;;;;;5.20;1.38;;;;;;;;;;5048431;28;20042;-90
2022/10/27 11:41:40;;;;;;;3.65;1.02;;;;;;;;;;5072086;28;20045;-89
2022/10/27 11:44:18;;;;;;;3.45;1.30;;;;;;;;;;5038693;28;20040;-89
2022/10/27 11:47:01;;;;;;;3.50;1.20;;;;;;;;;;5079914;28;20086;-86
2022/10/27 11:49:44;;;;;;;4.50;1.40;;;;;;;;;;5057280;28;20190;-85
2022/10/27 11:52:27;;;;;;;4.63;1.35;;;;;;;;;;5055487;28;20116;-86
2022/10/27 11:54:53;;;;;;;2.63;1.23;;;;;;;;;;5038383;28;20037;-85
2022/10/27 11:57:32;;;;;;;4.75;1.73;;;;;;;;;;5039948;28;20037;-86
2022/10/27 12:00:05;;;;;;;4.93;1.17;;;;;;;;;;5056822;28;20025;-87
2022/10/27 12:02:38;;;;;;;2.70;1.02;;;;;;;;;;5053865;28;20040;-83
2022/10/27 12:05:13;;;;;;;2.90;1.10;;;;;;;;;;5091365;28;20093;-86
2022/10/27 12:08:10;;;;;;;3.45;1.10;;;;;;;;;;5074778;28;20127;-86
2022/10/27 12:10:44;;;;;;;4.78;1.40;;;;;;;;;;5079611;28;20118;-85
2022/10/27 12:13:22;;;;;;;2.22;0.90;;;;;;;;;;5065984;28;20407;-87
2022/10/27 12:15:58;;;;;;;3.80;0.95;;;;;;;;;;5088181;28;20503;-87
2022/10/27 12:18:51;;;;;;;3.47;1.20;;;;;;;;;;5056984;28;20032;-88
2022/10/27 12:21:26;;;;;;;4.22;1.10;;;;;;;;;;5066446;28;20032;-87
2022/10/27 12:23:58;;;;;;;3.35;1.02;;;;;;;;;;5044778;28;20028;-88
2022/10/27 12:26:30;;;;;;;3.78;1.23;;;;;;;;;;5066738;28;20032;-88
2022/10/27 12:28:56;;;;;;;3.05;1.20;;;;;;;;;;5059594;28;20570;-88
2022/10/27 12:31:25;;;;;;;3.28;1.10;;;;;;;;;;5058865;28;20135;-87
2022/10/27 12:33:56;;;;;;;3.75;1.17;;;;;;;;;;5045600;28;20107;-85
2022/10/27 12:36:36;;;;;;;3.33;0.80;;;;;;;;;;5048957;28;20038;-87
2022/10/27 12:39:13;;;;;;;2.85;1.00;;;;;;;;;;5073636;28;20028;-85
2022/10/27 12:41:53;;;;;;;2.92;1.08;;;;;;;;;;5063553;28;20395;-86
2022/10/27 12:44:49;;;;;;;4.05;1.05;;;;;;;;;;5070668;28;20047;-83
2022/10/27 12:47:22;;;;;;;4.70;1.27;;;;;;;;;;5061437;28;20037;-82
2022/10/27 12:50:13;;;;;;;3.15;1.00;;;;;;;;;;5077352;28;20044;-83
2022/10/27 12:53:07;;;;;;;5.10;1.20;;;;;;;;;;5054640;28;20032;-85
2022/10/27 12:55:45;;;;;;;2.88;1.30;;;;;;;;;;5066254;28;20387;-87
2022/10/27 12:58:12;;;;;;;4.78;1.05;;;;;;;;;;5038406;28;20044;-88
2022/10/27 13:00:56;;;;;;;2.60;1.10;;;;;;;;;;5092799;28;20040;-88
2022/10/27 13:03:22;;;;;;;2.55;0.85;;;;;;;;;;5060595;28;20036;-88
2022/10/27 13:05:58;;;;;;;3.00;1.10;;;;;;;;;;5058144;28;20521;-87
2022/10/27 13:08:54;;;;;;;2.92;1.20;;;;;;;;;;5075639;28;20041;-87
2022/10/27 13:11:50;;;;;;;3.15;0.73;;;;;;;;;;5089332;28;20028;-88
2022/10/27 13:14:34;;;;;;;2.88;1.00;;;;;;;;;;5071692;28;20048;-88
2022/10/27 13:16:59;;;;;;;3.17;1.10;;;;;;;;;;5057966;28;20487;-88
2022/10/27 13:19:55;;;;;;;3.10;1.02;;;;;;;;;;5058666;28;20040;-88
2022/10/27 13:22:33;;;;;;;3.25;1.13;;;;;;;;;;5063604;28;20123;-87
2022/10/27 13:25:03;;;;;;;5.03;1.05;;;;;;;;;;5072467;28;20037;-88
2022/10/27 13:27:56;;;;;;;4.32;1.20;;;;;;;;;;5049155;28;20036;-88
2022/10/27 13:30:28;;;;;;;3.03;0.90;;;;;;;;;;5053435;28;20059;-87
2022/10/27 13:32:54;;;;;;;2.20;0.90;;;;;;;;;;5056787;28;20097;-89
2022/10/27 13:35:29;;;;;;;5.53;1.10;;;;;;;;;;5073019;28;20032;-89
2022/10/27 13:37:54;;;;;;;3.58;1.00;;;;;;;;;;5055582;28;20036;-89
2022/10/27 13:40:19;;;;;;;3.67;0.95;;;;;;;;;;5073657;28;20101;-87
2022/10/27 13:42:49;;;;;;;2.40;1.00;;;;;;;;;;5057958;28;20046;-87
2022/10/27 13:45:33;;;;;;;2.42;0.90;;;;;;;;;;5075546;28;20028;-87
2022/10/27 13:48:10;;;;;;;3.28;0.98;;;;;;;;;;5070699;28;20119;-87
2022/10/27 13:50:47;;;;;;;4.38;1.50;;;;;;;;;;5064507;28;20113;-87
2022/10/27 13:53:15;;;;;;;3.20;0.90;;;;;;;;;;5050017;28;20883;-87
2022/10/27 13:55:42;;;;;;;3.85;1.10;;;;;;;;;;5059046;28;20037;-86
2022/10/27 14:01:02;;;;;;;2.25;0.90;;;;;;;;;;5071457;28;20082;-88
2022/10/27 14:03:42;;;;;;;2.80;0.80;;;;;;;;;;5074296;28;20067;-86
2022/10/27 14:06:07;;;;;;;2.72;0.82;;;;;;;;;;5046797;28;20040;-85
2022/10/27 14:08:32;;;;;;;3.10;0.80;;;;;;;;;;5057474;28;20078;-87
2022/10/27 14:11:01;;;;;;;2.85;0.93;;;;;;;;;;5072204;28;20283;-88
2022/10/27 14:13:34;;;;;;;4.72;1.15;;;;;;;;;;5081682;28;20085;-88
2022/10/27 14:16:01;;;;;;;2.17;1.00;;;;;;;;;;5085827;28;20143;-88
2022/10/27 14:18:36;;;;;;;4.38;1.00;;;;;;;;;;5048131;28;20031;-86
2022/10/27 14:21:20;;;;;;;5.22;1.40;;;;;;;;;;5071547;28;20122;-88
2022/10/27 14:23:46;;;;;;;3.35;0.93;;;;;;;;;;5047975;28;20548;-88
2022/10/27 14:26:40;;;;;;;3.17;1.02;;;;;;;;;;5039272;28;20032;-88
2022/10/27 14:29:21;;;;;;;3.55;1.13;;;;;;;;;;5030119;28;20033;-87
2022/10/27 14:31:47;;;;;;;4.10;1.30;;;;;;;;;;5055763;28;20025;-87
2022/10/27 14:34:21;;;;;;;2.35;0.80;;;;;;;;;;5074230;28;20047;-87
2022/10/27 14:36:48;;;;;;;3.03;0.98;;;;;;;;;;5041219;28;20032;-84
2022/10/27 14:39:19;;;;;;;3.28;1.10;;;;;;;;;;5075851;28;20067;-86
2022/10/27 14:41:45;;;;;;;2.97;1.00;;;;;;;;;;5072113;28;20093;-85
2022/10/27 14:44:16;;;;;;;2.60;0.88;;;;;;;;;;5052519;28;20147;-86
2022/10/27 14:46:44;;;;;;;2.55;0.80;;;;;;;;;;5058747;28;20056;-87
2022/10/27 14:49:42;;;;;;;2.58;1.02;;;;;;;;;;5057537;28;20048;-87
2022/10/27 14:52:16;;;;;;;1.98;0.82;;;;;;;;;;5042044;28;20047;-87
2022/10/27 14:54:45;;;;;;;2.75;0.95;;;;;;;;;;5081172;28;20040;-86
2022/10/27 14:57:39;;;;;;;2.38;1.00;;;;;;;;;;5044151;28;20055;-88
2022/10/27 15:00:26;;;;;;;3.13;1.08;;;;;;;;;;5038851;28;20758;-85
2022/10/27 15:02:53;;;;;;;4.30;1.08;;;;;;;;;;5044230;28;20036;-88
2022/10/27 15:05:29;;;;;;;2.85;1.10;;;;;;;;;;5088107;28;20408;-84
2022/10/27 15:07:59;;;;;;;2.55;0.98;;;;;;;;;;5055332;28;20048;-91
2022/10/27 15:10:36;;;;;;;4.75;1.10;;;;;;;;;;5040645;28;20400;-89